sensor_id;sensor_type;location;lat;lon;timestamp;P1;durP1;ratioP1;P2;durP2;ratioP2
11582;SDS011;34299;50.820;4.548;2023-08-21T00:02:15;1.77;;;1.40;;
11582;SDS011;34299;50.820;4.548;2023-08-21T00:04:42;5.53;;;1.17;;
11582;SDS011;34299;50.820;4.548;2023-08-21T00:07:11;3.17;;;1.23;;
11582;SDS011;34299;50.820;4.548;2023-08-21T00:09:38;8.03;;;1.30;;
11582;SDS011;34299;50.820;4.548;2023-08-21T00:12:05;5.67;;;1.50;;
11582;SDS011;34299;50.820;4.548;2023-08-21T00:14:33;8.70;;;2.00;;
11582;SDS011;34299;50.820;4.548;2023-08-21T00:17:00;4.00;;;1.53;;
11582;SDS011;34299;50.820;4.548;2023-08-21T00:19:29;2.70;;;1.60;;
11582;SDS011;34299;50.820;4.548;2023-08-21T00:21:59;4.13;;;1.70;;
11582;SDS011;34299;50.820;4.548;2023-08-21T00:24:34;2.17;;;1.10;;
11582;SDS011;34299;50.820;4.548;2023-08-21T00:27:01;4.77;;;1.20;;
11582;SDS011;34299;50.820;4.548;2023-08-21T00:29:28;5.53;;;1.30;;
11582;SDS011;34299;50.820;4.548;2023-08-21T00:31:55;5.57;;;1.47;;
11582;SDS011;34299;50.820;4.548;2023-08-21T00:34:22;2.97;;;1.50;;
11582;SDS011;34299;50.820;4.548;2023-08-21T00:36:49;2.47;;;1.60;;
11582;SDS011;34299;50.820;4.548;2023-08-21T00:39:17;4.47;;;1.73;;
11582;SDS011;34299;50.820;4.548;2023-08-21T00:41:45;2.57;;;1.23;;
11582;SDS011;34299;50.820;4.548;2023-08-21T00:44:12;5.63;;;1.40;;
11582;SDS011;34299;50.820;4.548;2023-08-21T00:46:39;4.07;;;1.30;;
11582;SDS011;34299;50.820;4.548;2023-08-21T00:49:06;4.20;;;1.37;;
11582;SDS011;34299;50.820;4.548;2023-08-21T00:51:33;6.37;;;1.77;;
11582;SDS011;34299;50.820;4.548;2023-08-21T00:54:00;1.60;;;1.50;;
11582;SDS011;34299;50.820;4.548;2023-08-21T00:56:28;4.67;;;1.40;;
11582;SDS011;34299;50.820;4.548;2023-08-21T00:58:57;3.57;;;1.40;;
11582;SDS011;34299;50.820;4.548;2023-08-21T01:01:24;2.03;;;1.10;;
11582;SDS011;34299;50.820;4.548;2023-08-21T01:03:52;4.20;;;1.60;;
11582;SDS011;34299;50.820;4.548;2023-08-21T01:06:19;4.83;;;1.50;;
11582;SDS011;34299;50.820;4.548;2023-08-21T01:08:47;3.53;;;1.33;;
11582;SDS011;34299;50.820;4.548;2023-08-21T01:11:25;5.90;;;1.50;;
11582;SDS011;34299;50.820;4.548;2023-08-21T01:14:02;3.23;;;1.50;;
11582;SDS011;34299;50.820;4.548;2023-08-21T01:16:34;2.73;;;1.40;;
11582;SDS011;34299;50.820;4.548;2023-08-21T01:19:03;3.57;;;1.50;;
11582;SDS011;34299;50.820;4.548;2023-08-21T01:21:51;4.93;;;1.80;;
11582;SDS011;34299;50.820;4.548;2023-08-21T01:24:20;4.33;;;1.50;;
11582;SDS011;34299;50.820;4.548;2023-08-21T01:26:47;3.43;;;1.60;;
11582;SDS011;34299;50.820;4.548;2023-08-21T01:29:14;2.13;;;1.37;;
11582;SDS011;34299;50.820;4.548;2023-08-21T01:31:44;9.20;;;1.80;;
11582;SDS011;34299;50.820;4.548;2023-08-21T01:34:25;5.03;;;1.33;;
11582;SDS011;34299;50.820;4.548;2023-08-21T01:36:55;4.87;;;1.83;;
11582;SDS011;34299;50.820;4.548;2023-08-21T01:39:24;4.87;;;2.27;;
11582;SDS011;34299;50.820;4.548;2023-08-21T01:41:52;2.67;;;1.30;;
11582;SDS011;34299;50.820;4.548;2023-08-21T01:44:21;3.60;;;1.60;;
11582;SDS011;34299;50.820;4.548;2023-08-21T01:46:48;2.00;;;1.30;;
11582;SDS011;34299;50.820;4.548;2023-08-21T01:49:15;4.67;;;1.60;;
11582;SDS011;34299;50.820;4.548;2023-08-21T01:51:44;4.30;;;1.40;;
11582;SDS011;34299;50.820;4.548;2023-08-21T01:54:14;2.97;;;1.77;;
11582;SDS011;34299;50.820;4.548;2023-08-21T01:56:42;4.63;;;1.80;;
11582;SDS011;34299;50.820;4.548;2023-08-21T01:59:09;6.00;;;1.93;;
11582;SDS011;34299;50.820;4.548;2023-08-21T02:01:36;2.83;;;1.40;;
11582;SDS011;34299;50.820;4.548;2023-08-21T02:04:03;3.63;;;1.43;;
11582;SDS011;34299;50.820;4.548;2023-08-21T02:06:30;5.33;;;2.00;;
11582;SDS011;34299;50.820;4.548;2023-08-21T02:08:57;5.30;;;2.00;;
11582;SDS011;34299;50.820;4.548;2023-08-21T02:11:24;4.27;;;1.80;;
11582;SDS011;34299;50.820;4.548;2023-08-21T02:13:53;3.30;;;1.80;;
11582;SDS011;34299;50.820;4.548;2023-08-21T02:16:20;2.73;;;1.70;;
11582;SDS011;34299;50.820;4.548;2023-08-21T02:18:47;3.80;;;2.43;;
11582;SDS011;34299;50.820;4.548;2023-08-21T02:21:15;1.57;;;1.43;;
11582;SDS011;34299;50.820;4.548;2023-08-21T02:23:42;3.73;;;1.73;;
11582;SDS011;34299;50.820;4.548;2023-08-21T02:26:09;6.93;;;2.10;;
11582;SDS011;34299;50.820;4.548;2023-08-21T02:28:36;3.37;;;1.60;;
11582;SDS011;34299;50.820;4.548;2023-08-21T02:31:04;3.40;;;1.80;;
11582;SDS011;34299;50.820;4.548;2023-08-21T02:33:37;3.87;;;1.53;;
11582;SDS011;34299;50.820;4.548;2023-08-21T02:36:04;6.30;;;2.30;;
11582;SDS011;34299;50.820;4.548;2023-08-21T02:38:32;7.33;;;1.70;;
11582;SDS011;34299;50.820;4.548;2023-08-21T02:40:59;5.10;;;1.97;;
11582;SDS011;34299;50.820;4.548;2023-08-21T02:43:31;8.17;;;1.67;;
11582;SDS011;34299;50.820;4.548;2023-08-21T02:45:59;4.87;;;1.80;;
11582;SDS011;34299;50.820;4.548;2023-08-21T02:48:28;5.77;;;1.80;;
11582;SDS011;34299;50.820;4.548;2023-08-21T02:50:55;6.17;;;2.10;;
11582;SDS011;34299;50.820;4.548;2023-08-21T02:53:22;5.63;;;1.63;;
11582;SDS011;34299;50.820;4.548;2023-08-21T02:55:49;3.80;;;1.67;;
11582;SDS011;34299;50.820;4.548;2023-08-21T02:58:18;4.50;;;1.80;;
11582;SDS011;34299;50.820;4.548;2023-08-21T03:00:45;4.03;;;2.00;;
11582;SDS011;34299;50.820;4.548;2023-08-21T03:03:12;4.73;;;1.87;;
11582;SDS011;34299;50.820;4.548;2023-08-21T03:05:43;3.10;;;1.60;;
11582;SDS011;34299;50.820;4.548;2023-08-21T03:08:10;4.33;;;1.73;;
11582;SDS011;34299;50.820;4.548;2023-08-21T03:10:37;5.40;;;1.80;;
11582;SDS011;34299;50.820;4.548;2023-08-21T03:13:04;5.03;;;1.63;;
11582;SDS011;34299;50.820;4.548;2023-08-21T03:15:31;5.97;;;1.87;;
11582;SDS011;34299;50.820;4.548;2023-08-21T03:17:58;2.73;;;1.57;;
11582;SDS011;34299;50.820;4.548;2023-08-21T03:20:25;5.27;;;1.70;;
11582;SDS011;34299;50.820;4.548;2023-08-21T03:22:54;5.73;;;2.53;;
11582;SDS011;34299;50.820;4.548;2023-08-21T03:25:21;3.93;;;1.63;;
11582;SDS011;34299;50.820;4.548;2023-08-21T03:27:48;7.10;;;1.90;;
11582;SDS011;34299;50.820;4.548;2023-08-21T03:30:17;4.67;;;1.80;;
11582;SDS011;34299;50.820;4.548;2023-08-21T03:32:44;2.00;;;1.80;;
11582;SDS011;34299;50.820;4.548;2023-08-21T03:35:11;3.30;;;1.70;;
11582;SDS011;34299;50.820;4.548;2023-08-21T03:37:38;3.43;;;1.70;;
11582;SDS011;34299;50.820;4.548;2023-08-21T03:40:07;4.47;;;2.30;;
11582;SDS011;34299;50.820;4.548;2023-08-21T03:42:35;4.27;;;1.90;;
11582;SDS011;34299;50.820;4.548;2023-08-21T03:45:02;3.03;;;1.83;;
11582;SDS011;34299;50.820;4.548;2023-08-21T03:47:30;2.40;;;1.70;;
11582;SDS011;34299;50.820;4.548;2023-08-21T03:50:00;3.90;;;2.03;;
11582;SDS011;34299;50.820;4.548;2023-08-21T03:52:28;5.23;;;1.97;;
11582;SDS011;34299;50.820;4.548;2023-08-21T03:54:55;5.13;;;1.80;;
11582;SDS011;34299;50.820;4.548;2023-08-21T03:57:25;2.40;;;1.80;;
11582;SDS011;34299;50.820;4.548;2023-08-21T03:59:53;4.07;;;1.73;;
11582;SDS011;34299;50.820;4.548;2023-08-21T04:02:22;5.00;;;1.53;;
11582;SDS011;34299;50.820;4.548;2023-08-21T04:04:49;2.50;;;1.50;;
11582;SDS011;34299;50.820;4.548;2023-08-21T04:07:16;6.03;;;2.30;;
11582;SDS011;34299;50.820;4.548;2023-08-21T04:09:43;3.50;;;1.80;;
11582;SDS011;34299;50.820;4.548;2023-08-21T04:12:13;5.37;;;1.83;;
11582;SDS011;34299;50.820;4.548;2023-08-21T04:14:42;4.47;;;1.97;;
11582;SDS011;34299;50.820;4.548;2023-08-21T04:17:09;4.13;;;1.63;;
11582;SDS011;34299;50.820;4.548;2023-08-21T04:19:37;3.03;;;1.57;;
11582;SDS011;34299;50.820;4.548;2023-08-21T04:22:06;6.20;;;1.67;;
11582;SDS011;34299;50.820;4.548;2023-08-21T04:24:33;7.30;;;2.63;;
11582;SDS011;34299;50.820;4.548;2023-08-21T04:27:00;4.53;;;1.90;;
11582;SDS011;34299;50.820;4.548;2023-08-21T04:29:27;7.87;;;1.70;;
11582;SDS011;34299;50.820;4.548;2023-08-21T04:31:56;6.03;;;1.67;;
11582;SDS011;34299;50.820;4.548;2023-08-21T04:34:25;4.63;;;1.60;;
11582;SDS011;34299;50.820;4.548;2023-08-21T04:36:52;5.00;;;2.03;;
11582;SDS011;34299;50.820;4.548;2023-08-21T04:39:27;4.43;;;2.20;;
11582;SDS011;34299;50.820;4.548;2023-08-21T04:41:54;6.93;;;1.90;;
11582;SDS011;34299;50.820;4.548;2023-08-21T04:44:29;4.87;;;1.87;;
11582;SDS011;34299;50.820;4.548;2023-08-21T04:47:13;10.43;;;2.50;;
11582;SDS011;34299;50.820;4.548;2023-08-21T04:49:45;2.73;;;1.90;;
11582;SDS011;34299;50.820;4.548;2023-08-21T04:52:12;3.90;;;1.90;;
11582;SDS011;34299;50.820;4.548;2023-08-21T04:54:39;4.27;;;2.47;;
11582;SDS011;34299;50.820;4.548;2023-08-21T04:57:06;4.67;;;1.73;;
11582;SDS011;34299;50.820;4.548;2023-08-21T04:59:36;3.53;;;1.73;;
11582;SDS011;34299;50.820;4.548;2023-08-21T05:02:04;9.03;;;2.27;;
11582;SDS011;34299;50.820;4.548;2023-08-21T05:04:32;5.33;;;2.10;;
11582;SDS011;34299;50.820;4.548;2023-08-21T05:06:59;2.70;;;1.87;;
11582;SDS011;34299;50.820;4.548;2023-08-21T05:09:28;4.87;;;1.90;;
11582;SDS011;34299;50.820;4.548;2023-08-21T05:11:55;8.60;;;2.00;;
11582;SDS011;34299;50.820;4.548;2023-08-21T05:14:23;9.23;;;2.17;;
11582;SDS011;34299;50.820;4.548;2023-08-21T05:16:50;5.73;;;1.83;;
11582;SDS011;34299;50.820;4.548;2023-08-21T05:19:19;6.60;;;2.20;;
11582;SDS011;34299;50.820;4.548;2023-08-21T05:21:46;6.63;;;2.03;;
11582;SDS011;34299;50.820;4.548;2023-08-21T05:24:13;6.43;;;2.07;;
11582;SDS011;34299;50.820;4.548;2023-08-21T05:26:40;4.17;;;1.90;;
11582;SDS011;34299;50.820;4.548;2023-08-21T05:29:07;4.23;;;2.03;;
11582;SDS011;34299;50.820;4.548;2023-08-21T05:31:34;5.70;;;2.07;;
11582;SDS011;34299;50.820;4.548;2023-08-21T05:34:01;3.90;;;1.73;;
11582;SDS011;34299;50.820;4.548;2023-08-21T05:36:29;9.67;;;1.90;;
11582;SDS011;34299;50.820;4.548;2023-08-21T05:38:57;9.33;;;2.43;;
11582;SDS011;34299;50.820;4.548;2023-08-21T05:41:26;6.97;;;2.43;;
11582;SDS011;34299;50.820;4.548;2023-08-21T05:43:55;4.60;;;1.93;;
11582;SDS011;34299;50.820;4.548;2023-08-21T05:46:24;2.03;;;1.83;;
11582;SDS011;34299;50.820;4.548;2023-08-21T05:48:55;4.33;;;2.10;;
11582;SDS011;34299;50.820;4.548;2023-08-21T05:51:24;3.80;;;2.00;;
11582;SDS011;34299;50.820;4.548;2023-08-21T05:53:53;3.60;;;2.03;;
11582;SDS011;34299;50.820;4.548;2023-08-21T05:56:20;5.60;;;2.33;;
11582;SDS011;34299;50.820;4.548;2023-08-21T05:58:48;4.57;;;2.33;;
11582;SDS011;34299;50.820;4.548;2023-08-21T06:01:18;3.27;;;1.90;;
11582;SDS011;34299;50.820;4.548;2023-08-21T06:03:45;4.43;;;2.00;;
11582;SDS011;34299;50.820;4.548;2023-08-21T06:06:12;2.43;;;2.00;;
11582;SDS011;34299;50.820;4.548;2023-08-21T06:08:40;3.73;;;2.37;;
11582;SDS011;34299;50.820;4.548;2023-08-21T06:11:09;6.33;;;2.43;;
11582;SDS011;34299;50.820;4.548;2023-08-21T06:13:38;3.87;;;2.10;;
11582;SDS011;34299;50.820;4.548;2023-08-21T06:16:06;5.27;;;2.10;;
11582;SDS011;34299;50.820;4.548;2023-08-21T06:18:41;11.20;;;3.10;;
11582;SDS011;34299;50.820;4.548;2023-08-21T06:21:11;7.20;;;2.03;;
11582;SDS011;34299;50.820;4.548;2023-08-21T06:23:41;4.10;;;2.40;;
11582;SDS011;34299;50.820;4.548;2023-08-21T06:26:19;5.00;;;2.30;;
11582;SDS011;34299;50.820;4.548;2023-08-21T06:28:46;3.53;;;1.90;;
11582;SDS011;34299;50.820;4.548;2023-08-21T06:31:22;7.10;;;2.30;;
11582;SDS011;34299;50.820;4.548;2023-08-21T06:33:51;4.53;;;2.17;;
11582;SDS011;34299;50.820;4.548;2023-08-21T06:36:21;5.07;;;2.07;;
11582;SDS011;34299;50.820;4.548;2023-08-21T06:38:50;7.00;;;2.47;;
11582;SDS011;34299;50.820;4.548;2023-08-21T06:41:21;4.73;;;2.10;;
11582;SDS011;34299;50.820;4.548;2023-08-21T06:43:50;6.47;;;2.60;;
11582;SDS011;34299;50.820;4.548;2023-08-21T06:46:22;7.50;;;2.40;;
11582;SDS011;34299;50.820;4.548;2023-08-21T06:49:13;8.37;;;2.40;;
11582;SDS011;34299;50.820;4.548;2023-08-21T06:54:47;5.13;;;2.47;;
11582;SDS011;34299;50.820;4.548;2023-08-21T07:04:39;6.37;;;2.53;;
11582;SDS011;34299;50.820;4.548;2023-08-21T07:10:56;8.10;;;2.40;;
11582;SDS011;34299;50.820;4.548;2023-08-21T07:13:25;3.90;;;2.27;;
11582;SDS011;34299;50.820;4.548;2023-08-21T07:34:12;7.77;;;2.97;;
11582;SDS011;34299;50.820;4.548;2023-08-21T07:36:39;6.60;;;2.40;;
11582;SDS011;34299;50.820;4.548;2023-08-21T07:39:11;5.40;;;2.07;;
11582;SDS011;34299;50.820;4.548;2023-08-21T07:41:42;8.43;;;2.93;;
11582;SDS011;34299;50.820;4.548;2023-08-21T07:45:03;9.57;;;2.57;;
11582;SDS011;34299;50.820;4.548;2023-08-21T07:58:18;6.93;;;2.43;;
11582;SDS011;34299;50.820;4.548;2023-08-21T08:04:55;7.10;;;2.80;;
11582;SDS011;34299;50.820;4.548;2023-08-21T08:07:44;9.37;;;2.93;;
11582;SDS011;34299;50.820;4.548;2023-08-21T08:10:52;7.47;;;2.90;;
11582;SDS011;34299;50.820;4.548;2023-08-21T08:14:05;10.37;;;2.70;;
11582;SDS011;34299;50.820;4.548;2023-08-21T08:19:34;6.73;;;2.30;;
11582;SDS011;34299;50.820;4.548;2023-08-21T08:22:03;6.63;;;2.20;;
11582;SDS011;34299;50.820;4.548;2023-08-21T08:24:49;7.07;;;2.33;;
11582;SDS011;34299;50.820;4.548;2023-08-21T08:27:26;6.60;;;2.07;;
11582;SDS011;34299;50.820;4.548;2023-08-21T08:29:58;5.00;;;2.00;;
11582;SDS011;34299;50.820;4.548;2023-08-21T08:32:50;4.50;;;2.00;;
11582;SDS011;34299;50.820;4.548;2023-08-21T08:35:34;6.43;;;2.83;;
11582;SDS011;34299;50.820;4.548;2023-08-21T08:38:03;4.93;;;2.10;;
11582;SDS011;34299;50.820;4.548;2023-08-21T08:40:47;5.63;;;2.00;;
11582;SDS011;34299;50.820;4.548;2023-08-21T08:43:25;4.73;;;2.17;;
11582;SDS011;34299;50.820;4.548;2023-08-21T08:45:54;3.23;;;2.17;;
11582;SDS011;34299;50.820;4.548;2023-08-21T08:48:24;5.00;;;1.60;;
11582;SDS011;34299;50.820;4.548;2023-08-21T08:50:56;7.07;;;2.30;;
11582;SDS011;34299;50.820;4.548;2023-08-21T08:53:30;6.20;;;2.10;;
11582;SDS011;34299;50.820;4.548;2023-08-21T08:56:03;10.23;;;2.40;;
11582;SDS011;34299;50.820;4.548;2023-08-21T08:58:43;5.77;;;2.10;;
11582;SDS011;34299;50.820;4.548;2023-08-21T09:01:10;4.90;;;1.60;;
11582;SDS011;34299;50.820;4.548;2023-08-21T09:03:37;4.70;;;1.63;;
11582;SDS011;34299;50.820;4.548;2023-08-21T09:06:04;4.10;;;1.80;;
11582;SDS011;34299;50.820;4.548;2023-08-21T09:08:31;6.03;;;1.70;;
11582;SDS011;34299;50.820;4.548;2023-08-21T09:11:00;8.13;;;1.30;;
11582;SDS011;34299;50.820;4.548;2023-08-21T09:13:28;5.33;;;2.00;;
11582;SDS011;34299;50.820;4.548;2023-08-21T09:16:00;3.73;;;1.60;;
11582;SDS011;34299;50.820;4.548;2023-08-21T09:18:27;4.23;;;1.47;;
11582;SDS011;34299;50.820;4.548;2023-08-21T09:20:55;5.40;;;1.60;;
11582;SDS011;34299;50.820;4.548;2023-08-21T09:23:22;3.53;;;1.40;;
11582;SDS011;34299;50.820;4.548;2023-08-21T09:25:49;1.30;;;1.20;;
11582;SDS011;34299;50.820;4.548;2023-08-21T09:28:18;4.00;;;1.47;;
11582;SDS011;34299;50.820;4.548;2023-08-21T09:30:47;6.17;;;1.57;;
11582;SDS011;34299;50.820;4.548;2023-08-21T09:33:18;5.20;;;1.67;;
11582;SDS011;34299;50.820;4.548;2023-08-21T09:35:47;4.73;;;1.57;;
11582;SDS011;34299;50.820;4.548;2023-08-21T09:38:15;2.93;;;1.27;;
11582;SDS011;34299;50.820;4.548;2023-08-21T09:40:42;3.00;;;1.73;;
11582;SDS011;34299;50.820;4.548;2023-08-21T09:43:10;3.80;;;1.70;;
11582;SDS011;34299;50.820;4.548;2023-08-21T09:45:37;3.87;;;1.57;;
11582;SDS011;34299;50.820;4.548;2023-08-21T09:48:05;10.47;;;1.80;;
11582;SDS011;34299;50.820;4.548;2023-08-21T09:50:34;2.83;;;1.43;;
11582;SDS011;34299;50.820;4.548;2023-08-21T09:53:03;9.57;;;2.43;;
11582;SDS011;34299;50.820;4.548;2023-08-21T09:55:33;3.47;;;1.60;;
11582;SDS011;34299;50.820;4.548;2023-08-21T09:58:01;3.00;;;1.27;;
11582;SDS011;34299;50.820;4.548;2023-08-21T10:00:29;5.40;;;1.30;;
11582;SDS011;34299;50.820;4.548;2023-08-21T10:02:59;4.23;;;1.37;;
11582;SDS011;34299;50.820;4.548;2023-08-21T10:05:28;2.80;;;1.10;;
11582;SDS011;34299;50.820;4.548;2023-08-21T10:07:59;7.03;;;1.10;;
11582;SDS011;34299;50.820;4.548;2023-08-21T10:10:29;1.80;;;1.10;;
11582;SDS011;34299;50.820;4.548;2023-08-21T10:12:57;2.00;;;0.90;;
11582;SDS011;34299;50.820;4.548;2023-08-21T10:15:25;4.53;;;1.50;;
11582;SDS011;34299;50.820;4.548;2023-08-21T10:17:53;2.30;;;1.00;;
11582;SDS011;34299;50.820;4.548;2023-08-21T10:20:21;6.67;;;1.60;;
11582;SDS011;34299;50.820;4.548;2023-08-21T10:22:49;2.90;;;1.20;;
11582;SDS011;34299;50.820;4.548;2023-08-21T10:25:21;3.77;;;1.17;;
11582;SDS011;34299;50.820;4.548;2023-08-21T10:27:51;3.43;;;1.43;;
11582;SDS011;34299;50.820;4.548;2023-08-21T10:30:20;3.40;;;1.30;;
11582;SDS011;34299;50.820;4.548;2023-08-21T10:32:49;2.67;;;1.20;;
11582;SDS011;34299;50.820;4.548;2023-08-21T10:35:18;1.43;;;1.20;;
11582;SDS011;34299;50.820;4.548;2023-08-21T10:38:05;3.77;;;1.40;;
11582;SDS011;34299;50.820;4.548;2023-08-21T10:40:38;4.37;;;1.40;;
11582;SDS011;34299;50.820;4.548;2023-08-21T10:46:03;4.07;;;1.30;;
11582;SDS011;34299;50.820;4.548;2023-08-21T10:48:30;3.63;;;1.50;;
11582;SDS011;34299;50.820;4.548;2023-08-21T10:50:57;4.03;;;1.17;;
11582;SDS011;34299;50.820;4.548;2023-08-21T10:53:26;3.40;;;1.50;;
11582;SDS011;34299;50.820;4.548;2023-08-21T10:55:55;3.63;;;1.40;;
11582;SDS011;34299;50.820;4.548;2023-08-21T10:58:23;3.00;;;1.83;;
11582;SDS011;34299;50.820;4.548;2023-08-21T11:00:56;2.57;;;1.37;;
11582;SDS011;34299;50.820;4.548;2023-08-21T11:03:23;3.47;;;1.80;;
11582;SDS011;34299;50.820;4.548;2023-08-21T11:05:59;2.13;;;1.17;;
11582;SDS011;34299;50.820;4.548;2023-08-21T11:08:30;2.33;;;1.13;;
11582;SDS011;34299;50.820;4.548;2023-08-21T11:10:59;3.37;;;1.70;;
11582;SDS011;34299;50.820;4.548;2023-08-21T11:13:28;2.77;;;1.20;;
11582;SDS011;34299;50.820;4.548;2023-08-21T11:15:58;3.73;;;1.20;;
11582;SDS011;34299;50.820;4.548;2023-08-21T11:18:31;5.70;;;1.83;;
11582;SDS011;34299;50.820;4.548;2023-08-21T11:21:06;4.23;;;1.50;;
11582;SDS011;34299;50.820;4.548;2023-08-21T11:23:35;7.40;;;1.67;;
11582;SDS011;34299;50.820;4.548;2023-08-21T11:26:04;3.37;;;1.23;;
11582;SDS011;34299;50.820;4.548;2023-08-21T11:28:32;3.83;;;1.37;;
11582;SDS011;34299;50.820;4.548;2023-08-21T11:30:59;5.47;;;1.30;;
11582;SDS011;34299;50.820;4.548;2023-08-21T11:33:27;1.97;;;1.30;;
11582;SDS011;34299;50.820;4.548;2023-08-21T11:35:54;4.73;;;1.53;;
11582;SDS011;34299;50.820;4.548;2023-08-21T11:38:23;4.87;;;1.53;;
11582;SDS011;34299;50.820;4.548;2023-08-21T11:40:53;2.97;;;1.50;;
11582;SDS011;34299;50.820;4.548;2023-08-21T11:43:22;4.33;;;1.70;;
11582;SDS011;34299;50.820;4.548;2023-08-21T11:46:00;3.20;;;1.60;;
11582;SDS011;34299;50.820;4.548;2023-08-21T11:48:27;2.33;;;1.47;;
11582;SDS011;34299;50.820;4.548;2023-08-21T11:50:55;4.47;;;1.47;;
11582;SDS011;34299;50.820;4.548;2023-08-21T11:53:32;3.53;;;1.60;;
11582;SDS011;34299;50.820;4.548;2023-08-21T11:56:00;6.07;;;1.67;;
11582;SDS011;34299;50.820;4.548;2023-08-21T11:58:29;4.60;;;1.60;;
11582;SDS011;34299;50.820;4.548;2023-08-21T12:01:01;5.23;;;1.63;;
11582;SDS011;34299;50.820;4.548;2023-08-21T12:03:29;4.17;;;1.30;;
11582;SDS011;34299;50.820;4.548;2023-08-21T12:05:57;1.97;;;1.30;;
11582;SDS011;34299;50.820;4.548;2023-08-21T12:08:24;3.33;;;1.20;;
11582;SDS011;34299;50.820;4.548;2023-08-21T12:10:51;3.83;;;1.40;;
11582;SDS011;34299;50.820;4.548;2023-08-21T12:13:18;3.13;;;1.30;;
11582;SDS011;34299;50.820;4.548;2023-08-21T12:15:46;1.33;;;1.20;;
11582;SDS011;34299;50.820;4.548;2023-08-21T12:18:13;2.03;;;1.17;;
11582;SDS011;34299;50.820;4.548;2023-08-21T12:20:40;4.93;;;1.47;;
11582;SDS011;34299;50.820;4.548;2023-08-21T12:23:07;3.37;;;1.23;;
11582;SDS011;34299;50.820;4.548;2023-08-21T12:25:35;2.47;;;1.30;;
11582;SDS011;34299;50.820;4.548;2023-08-21T12:28:02;2.83;;;1.30;;
11582;SDS011;34299;50.820;4.548;2023-08-21T12:30:29;3.73;;;1.20;;
11582;SDS011;34299;50.820;4.548;2023-08-21T12:32:58;3.13;;;1.40;;
11582;SDS011;34299;50.820;4.548;2023-08-21T12:35:25;2.37;;;1.20;;
11582;SDS011;34299;50.820;4.548;2023-08-21T12:37:55;1.77;;;1.13;;
11582;SDS011;34299;50.820;4.548;2023-08-21T12:40:23;4.80;;;1.37;;
11582;SDS011;34299;50.820;4.548;2023-08-21T12:42:50;4.17;;;1.50;;
11582;SDS011;34299;50.820;4.548;2023-08-21T12:45:17;4.93;;;1.30;;
11582;SDS011;34299;50.820;4.548;2023-08-21T12:47:44;4.43;;;1.50;;
11582;SDS011;34299;50.820;4.548;2023-08-21T12:50:13;7.20;;;1.77;;
11582;SDS011;34299;50.820;4.548;2023-08-21T12:52:40;3.17;;;1.20;;
11582;SDS011;34299;50.820;4.548;2023-08-21T12:55:07;3.17;;;1.40;;
11582;SDS011;34299;50.820;4.548;2023-08-21T12:57:34;2.87;;;1.13;;
11582;SDS011;34299;50.820;4.548;2023-08-21T13:00:01;5.10;;;1.40;;
11582;SDS011;34299;50.820;4.548;2023-08-21T13:02:29;3.93;;;1.27;;
11582;SDS011;34299;50.820;4.548;2023-08-21T13:04:56;3.97;;;1.33;;
11582;SDS011;34299;50.820;4.548;2023-08-21T13:07:25;6.10;;;1.93;;
11582;SDS011;34299;50.820;4.548;2023-08-21T13:09:52;3.40;;;1.33;;
11582;SDS011;34299;50.820;4.548;2023-08-21T13:12:19;1.77;;;1.13;;
11582;SDS011;34299;50.820;4.548;2023-08-21T13:14:46;1.70;;;1.10;;
11582;SDS011;34299;50.820;4.548;2023-08-21T13:17:14;2.97;;;1.30;;
11582;SDS011;34299;50.820;4.548;2023-08-21T13:19:40;4.63;;;1.23;;
11582;SDS011;34299;50.820;4.548;2023-08-21T13:22:07;3.37;;;1.73;;
11582;SDS011;34299;50.820;4.548;2023-08-21T13:24:36;2.58;;;1.50;;
11582;SDS011;34299;50.820;4.548;2023-08-21T13:27:03;4.80;;;1.10;;
11582;SDS011;34299;50.820;4.548;2023-08-21T13:29:30;5.43;;;1.27;;
11582;SDS011;34299;50.820;4.548;2023-08-21T13:31:57;2.40;;;1.00;;
11582;SDS011;34299;50.820;4.548;2023-08-21T13:34:24;2.13;;;1.13;;
11582;SDS011;34299;50.820;4.548;2023-08-21T13:36:51;4.07;;;1.40;;
11582;SDS011;34299;50.820;4.548;2023-08-21T13:39:19;3.38;;;1.58;;
11582;SDS011;34299;50.820;4.548;2023-08-21T13:41:49;2.83;;;1.13;;
11582;SDS011;34299;50.820;4.548;2023-08-21T13:44:16;2.33;;;1.08;;
11582;SDS011;34299;50.820;4.548;2023-08-21T13:46:44;5.18;;;1.58;;
11582;SDS011;34299;50.820;4.548;2023-08-21T13:49:11;1.70;;;1.08;;
11582;SDS011;34299;50.820;4.548;2023-08-21T13:51:41;4.65;;;1.17;;
11582;SDS011;34299;50.820;4.548;2023-08-21T13:54:10;2.65;;;1.40;;
11582;SDS011;34299;50.820;4.548;2023-08-21T13:56:37;4.10;;;1.63;;
11582;SDS011;34299;50.820;4.548;2023-08-21T13:59:06;3.22;;;1.55;;
11582;SDS011;34299;50.820;4.548;2023-08-21T14:01:33;3.15;;;1.10;;
11582;SDS011;34299;50.820;4.548;2023-08-21T14:04:00;2.08;;;1.20;;
11582;SDS011;34299;50.820;4.548;2023-08-21T14:06:28;3.28;;;1.13;;
11582;SDS011;34299;50.820;4.548;2023-08-21T14:08:55;1.77;;;1.33;;
11582;SDS011;34299;50.820;4.548;2023-08-21T14:11:22;5.20;;;1.50;;
11582;SDS011;34299;50.820;4.548;2023-08-21T14:13:49;8.18;;;1.40;;
11582;SDS011;34299;50.820;4.548;2023-08-21T14:16:18;4.10;;;1.40;;
11582;SDS011;34299;50.820;4.548;2023-08-21T14:18:45;2.50;;;1.10;;
11582;SDS011;34299;50.820;4.548;2023-08-21T14:21:12;3.40;;;1.33;;
11582;SDS011;34299;50.820;4.548;2023-08-21T14:23:39;3.67;;;1.50;;
11582;SDS011;34299;50.820;4.548;2023-08-21T14:26:06;3.03;;;1.50;;
11582;SDS011;34299;50.820;4.548;2023-08-21T14:28:33;3.47;;;1.40;;
11582;SDS011;34299;50.820;4.548;2023-08-21T14:31:00;2.53;;;1.40;;
11582;SDS011;34299;50.820;4.548;2023-08-21T14:33:28;2.60;;;1.33;;
11582;SDS011;34299;50.820;4.548;2023-08-21T14:35:55;2.65;;;1.30;;
11582;SDS011;34299;50.820;4.548;2023-08-21T14:38:23;2.55;;;1.45;;
11582;SDS011;34299;50.820;4.548;2023-08-21T14:40:50;3.58;;;1.40;;
11582;SDS011;34299;50.820;4.548;2023-08-21T14:43:17;4.03;;;1.30;;
11582;SDS011;34299;50.820;4.548;2023-08-21T14:45:44;3.58;;;1.58;;
11582;SDS011;34299;50.820;4.548;2023-08-21T14:48:12;3.33;;;1.33;;
11582;SDS011;34299;50.820;4.548;2023-08-21T14:50:41;4.10;;;1.60;;
11582;SDS011;34299;50.820;4.548;2023-08-21T14:53:08;3.17;;;1.48;;
11582;SDS011;34299;50.820;4.548;2023-08-21T14:55:36;2.47;;;1.40;;
11582;SDS011;34299;50.820;4.548;2023-08-21T14:58:03;2.80;;;1.30;;
11582;SDS011;34299;50.820;4.548;2023-08-21T15:00:32;2.72;;;1.60;;
11582;SDS011;34299;50.820;4.548;2023-08-21T15:02:59;1.95;;;1.25;;
11582;SDS011;34299;50.820;4.548;2023-08-21T15:05:26;4.22;;;1.55;;
11582;SDS011;34299;50.820;4.548;2023-08-21T15:07:55;2.70;;;1.38;;
11582;SDS011;34299;50.820;4.548;2023-08-21T15:10:23;1.75;;;1.52;;
11582;SDS011;34299;50.820;4.548;2023-08-21T15:12:50;2.47;;;1.75;;
11582;SDS011;34299;50.820;4.548;2023-08-21T15:15:17;4.05;;;1.30;;
11582;SDS011;34299;50.820;4.548;2023-08-21T15:17:45;1.63;;;1.23;;
11582;SDS011;34299;50.820;4.548;2023-08-21T15:20:12;3.92;;;1.55;;
11582;SDS011;34299;50.820;4.548;2023-08-21T15:22:41;2.85;;;1.35;;
11582;SDS011;34299;50.820;4.548;2023-08-21T15:25:13;3.55;;;1.30;;
11582;SDS011;34299;50.820;4.548;2023-08-21T15:27:40;4.50;;;1.35;;
11582;SDS011;34299;50.820;4.548;2023-08-21T15:30:20;2.97;;;1.20;;
11582;SDS011;34299;50.820;4.548;2023-08-21T15:32:47;5.03;;;1.83;;
11582;SDS011;34299;50.820;4.548;2023-08-21T15:35:14;3.67;;;1.20;;
11582;SDS011;34299;50.820;4.548;2023-08-21T15:37:41;2.22;;;1.70;;
11582;SDS011;34299;50.820;4.548;2023-08-21T15:40:10;2.55;;;1.42;;
11582;SDS011;34299;50.820;4.548;2023-08-21T15:42:37;3.40;;;1.15;;
11582;SDS011;34299;50.820;4.548;2023-08-21T15:45:05;1.35;;;1.10;;
11582;SDS011;34299;50.820;4.548;2023-08-21T15:47:34;3.75;;;1.30;;
11582;SDS011;34299;50.820;4.548;2023-08-21T15:50:00;1.35;;;1.15;;
11582;SDS011;34299;50.820;4.548;2023-08-21T15:52:27;2.30;;;1.02;;
11582;SDS011;34299;50.820;4.548;2023-08-21T15:54:54;2.50;;;1.30;;